sensor_id;sensor_type;location;lat;lon;timestamp;pressure;altitude;pressure_sealevel;temperature;humidity
43707;BME280;61348;53.392;-6.248;2023-08-20T00:01:25;100642.09;;;16.72;87.46
43707;BME280;61348;53.392;-6.248;2023-08-20T00:03:53;100637.69;;;16.71;87.53
43707;BME280;61348;53.392;-6.248;2023-08-20T00:06:21;100640.06;;;16.69;87.60
43707;BME280;61348;53.392;-6.248;2023-08-20T00:08:48;100640.47;;;16.68;87.63
43707;BME280;61348;53.392;-6.248;2023-08-20T00:11:15;100644.06;;;16.68;87.66
43707;BME280;61348;53.392;-6.248;2023-08-20T00:13:42;100645.25;;;16.67;87.69
43707;BME280;61348;53.392;-6.248;2023-08-20T00:16:10;100653.59;;;16.64;87.93
43707;BME280;61348;53.392;-6.248;2023-08-20T00:18:38;100659.97;;;16.61;88.01
43707;BME280;61348;53.392;-6.248;2023-08-20T00:21:06;100661.56;;;16.58;88.20
43707;BME280;61348;53.392;-6.248;2023-08-20T00:23:33;100674.31;;;16.56;88.47
43707;BME280;61348;53.392;-6.248;2023-08-20T00:26:01;100675.53;;;16.55;88.52
43707;BME280;61348;53.392;-6.248;2023-08-20T00:28:29;100663.06;;;16.52;88.47
43707;BME280;61348;53.392;-6.248;2023-08-20T00:30:56;100671.84;;;16.51;88.64
43707;BME280;61348;53.392;-6.248;2023-08-20T00:33:23;100683.03;;;16.51;88.75
43707;BME280;61348;53.392;-6.248;2023-08-20T00:35:50;100670.22;;;16.50;88.71
43707;BME280;61348;53.392;-6.248;2023-08-20T00:38:17;100681.00;;;16.48;88.84
43707;BME280;61348;53.392;-6.248;2023-08-20T00:40:44;100673.00;;;16.46;89.02
43707;BME280;61348;53.392;-6.248;2023-08-20T00:43:12;100666.22;;;16.43;89.12
43707;BME280;61348;53.392;-6.248;2023-08-20T00:45:41;100665.34;;;16.39;89.21
43707;BME280;61348;53.392;-6.248;2023-08-20T00:48:08;100669.38;;;16.38;89.27
43707;BME280;61348;53.392;-6.248;2023-08-20T00:50:36;100674.50;;;16.36;89.23
43707;BME280;61348;53.392;-6.248;2023-08-20T00:53:05;100682.47;;;16.34;89.37
43707;BME280;61348;53.392;-6.248;2023-08-20T00:55:32;100689.69;;;16.35;89.31
43707;BME280;61348;53.392;-6.248;2023-08-20T00:58:00;100688.06;;;16.34;89.40
43707;BME280;61348;53.392;-6.248;2023-08-20T01:00:27;100692.06;;;16.33;89.58
43707;BME280;61348;53.392;-6.248;2023-08-20T01:02:54;100694.06;;;16.33;89.55
43707;BME280;61348;53.392;-6.248;2023-08-20T01:05:21;100702.41;;;16.29;89.67
43707;BME280;61348;53.392;-6.248;2023-08-20T01:08:11;100692.41;;;16.28;89.85
43707;BME280;61348;53.392;-6.248;2023-08-20T01:11:06;100691.63;;;16.28;89.76
43707;BME280;61348;53.392;-6.248;2023-08-20T01:13:32;100705.94;;;16.26;89.78
43707;BME280;61348;53.392;-6.248;2023-08-20T01:15:58;100701.13;;;16.23;90.05
43707;BME280;61348;53.392;-6.248;2023-08-20T01:18:25;100706.31;;;16.21;90.17
43707;BME280;61348;53.392;-6.248;2023-08-20T01:21:00;100710.28;;;16.20;90.21
43707;BME280;61348;53.392;-6.248;2023-08-20T01:29:09;100710.22;;;16.13;90.53
43707;BME280;61348;53.392;-6.248;2023-08-20T01:31:38;100710.59;;;16.12;90.43
43707;BME280;61348;53.392;-6.248;2023-08-20T01:34:06;100705.38;;;16.10;90.81
43707;BME280;61348;53.392;-6.248;2023-08-20T01:36:32;100707.78;;;16.08;90.88
43707;BME280;61348;53.392;-6.248;2023-08-20T01:38:59;100706.53;;;16.06;91.10
43707;BME280;61348;53.392;-6.248;2023-08-20T01:41:26;100713.69;;;16.03;91.01
43707;BME280;61348;53.392;-6.248;2023-08-20T01:43:53;100713.28;;;16.01;91.29
43707;BME280;61348;53.392;-6.248;2023-08-20T01:46:19;100714.47;;;16.00;91.32
43707;BME280;61348;53.392;-6.248;2023-08-20T01:48:46;100719.63;;;15.98;91.29
43707;BME280;61348;53.392;-6.248;2023-08-20T01:51:13;100715.22;;;15.97;91.48
43707;BME280;61348;53.392;-6.248;2023-08-20T01:53:40;100717.59;;;15.95;91.16
43707;BME280;61348;53.392;-6.248;2023-08-20T01:56:13;100723.19;;;15.95;91.58
43707;BME280;61348;53.392;-6.248;2023-08-20T01:58:40;100727.59;;;15.96;91.54
43707;BME280;61348;53.392;-6.248;2023-08-20T02:01:07;100722.78;;;15.93;91.55
43707;BME280;61348;53.392;-6.248;2023-08-20T02:03:35;100727.16;;;15.94;91.62
43707;BME280;61348;53.392;-6.248;2023-08-20T02:06:02;100734.34;;;15.95;91.58
43707;BME280;61348;53.392;-6.248;2023-08-20T02:08:29;100737.53;;;15.94;91.61
43707;BME280;61348;53.392;-6.248;2023-08-20T02:11:00;100739.13;;;15.95;91.65
43707;BME280;61348;53.392;-6.248;2023-08-20T02:13:28;100729.53;;;15.92;91.81
43707;BME280;61348;53.392;-6.248;2023-08-20T02:16:01;100749.06;;;15.92;91.64
43707;BME280;61348;53.392;-6.248;2023-08-20T02:18:30;100742.66;;;15.88;91.85
43707;BME280;61348;53.392;-6.248;2023-08-20T02:20:57;100743.84;;;15.87;92.02
43707;BME280;61348;53.392;-6.248;2023-08-20T02:23:23;100741.44;;;15.86;92.05
43707;BME280;61348;53.392;-6.248;2023-08-20T02:25:50;100746.22;;;15.85;92.22
43707;BME280;61348;53.392;-6.248;2023-08-20T02:28:17;100750.19;;;15.84;92.17
43707;BME280;61348;53.392;-6.248;2023-08-20T02:30:46;100746.97;;;15.82;92.36
43707;BME280;61348;53.392;-6.248;2023-08-20T02:33:13;100751.31;;;15.79;92.40
43707;BME280;61348;53.392;-6.248;2023-08-20T02:35:40;100750.09;;;15.77;92.74
43707;BME280;61348;53.392;-6.248;2023-08-20T02:38:07;100766.84;;;15.77;92.66
43707;BME280;61348;53.392;-6.248;2023-08-20T02:40:41;100765.97;;;15.73;92.65
43707;BME280;61348;53.392;-6.248;2023-08-20T02:43:09;100770.72;;;15.69;92.51
43707;BME280;61348;53.392;-6.248;2023-08-20T02:45:42;100767.53;;;15.67;92.60
43707;BME280;61348;53.392;-6.248;2023-08-20T02:48:10;100767.47;;;15.63;92.85
43707;BME280;61348;53.392;-6.248;2023-08-20T02:50:37;100773.84;;;15.64;92.85
43707;BME280;61348;53.392;-6.248;2023-08-20T02:53:04;100767.06;;;15.65;92.77
43707;BME280;61348;53.392;-6.248;2023-08-20T02:55:31;100772.66;;;15.65;92.66
43707;BME280;61348;53.392;-6.248;2023-08-20T02:57:58;100762.69;;;15.64;92.59
43707;BME280;61348;53.392;-6.248;2023-08-20T03:02:54;100766.66;;;15.63;92.55
43707;BME280;61348;53.392;-6.248;2023-08-20T03:05:21;100773.44;;;15.62;92.74
43707;BME280;61348;53.392;-6.248;2023-08-20T03:07:48;100767.84;;;15.62;92.80
43707;BME280;61348;53.392;-6.248;2023-08-20T03:10:17;100769.44;;;15.63;92.92
43707;BME280;61348;53.392;-6.248;2023-08-20T03:12:44;100785.78;;;15.61;92.98
43707;BME280;61348;53.392;-6.248;2023-08-20T03:15:11;100787.38;;;15.62;93.08
43707;BME280;61348;53.392;-6.248;2023-08-20T03:17:37;100784.59;;;15.62;93.10
43707;BME280;61348;53.392;-6.248;2023-08-20T03:20:05;100777.00;;;15.62;93.09
43707;BME280;61348;53.392;-6.248;2023-08-20T03:22:33;100781.03;;;15.65;93.16
43707;BME280;61348;53.392;-6.248;2023-08-20T03:25:00;100783.41;;;15.63;93.32
43707;BME280;61348;53.392;-6.248;2023-08-20T03:27:27;100787.00;;;15.63;93.20
43707;BME280;61348;53.392;-6.248;2023-08-20T03:29:53;100789.78;;;15.63;93.23
43707;BME280;61348;53.392;-6.248;2023-08-20T03:32:20;100784.59;;;15.62;93.04
43707;BME280;61348;53.392;-6.248;2023-08-20T03:34:47;100786.94;;;15.60;93.29
43707;BME280;61348;53.392;-6.248;2023-08-20T03:37:14;100784.97;;;15.60;93.31
43707;BME280;61348;53.392;-6.248;2023-08-20T03:39:41;100790.53;;;15.60;93.31
43707;BME280;61348;53.392;-6.248;2023-08-20T03:42:08;100778.16;;;15.58;93.36
43707;BME280;61348;53.392;-6.248;2023-08-20T03:44:35;100780.53;;;15.56;93.32
43707;BME280;61348;53.392;-6.248;2023-08-20T03:47:02;100788.09;;;15.55;93.45
43707;BME280;61348;53.392;-6.248;2023-08-20T03:49:29;100781.69;;;15.55;93.34
43707;BME280;61348;53.392;-6.248;2023-08-20T03:51:55;100791.25;;;15.54;93.31
43707;BME280;61348;53.392;-6.248;2023-08-20T03:54:22;100784.06;;;15.53;93.28
43707;BME280;61348;53.392;-6.248;2023-08-20T03:56:50;100791.63;;;15.52;93.29
43707;BME280;61348;53.392;-6.248;2023-08-20T03:59:17;100791.63;;;15.52;93.53
43707;BME280;61348;53.392;-6.248;2023-08-20T04:01:43;100794.06;;;15.54;93.53
43707;BME280;61348;53.392;-6.248;2023-08-20T04:04:10;100794.47;;;15.56;93.47
43707;BME280;61348;53.392;-6.248;2023-08-20T04:06:37;100794.47;;;15.56;93.36
43707;BME280;61348;53.392;-6.248;2023-08-20T04:09:04;100791.28;;;15.57;93.40
43707;BME280;61348;53.392;-6.248;2023-08-20T04:11:31;100792.09;;;15.58;93.47
43707;BME280;61348;53.392;-6.248;2023-08-20T04:14:01;100802.47;;;15.57;93.17
43707;BME280;61348;53.392;-6.248;2023-08-20T04:16:29;100808.84;;;15.58;93.25
43707;BME280;61348;53.392;-6.248;2023-08-20T04:18:56;100812.81;;;15.57;93.35
43707;BME280;61348;53.392;-6.248;2023-08-20T04:21:23;100807.22;;;15.57;93.42
43707;BME280;61348;53.392;-6.248;2023-08-20T04:23:49;100810.47;;;15.59;93.38
43707;BME280;61348;53.392;-6.248;2023-08-20T04:26:16;100812.06;;;15.60;93.46
43707;BME280;61348;53.392;-6.248;2023-08-20T04:28:43;100810.50;;;15.62;93.41
43707;BME280;61348;53.392;-6.248;2023-08-20T04:31:11;100805.78;;;15.66;93.46
43707;BME280;61348;53.392;-6.248;2023-08-20T04:33:37;100807.00;;;15.69;93.51
43707;BME280;61348;53.392;-6.248;2023-08-20T04:36:04;100808.25;;;15.71;93.29
43707;BME280;61348;53.392;-6.248;2023-08-20T04:38:31;100810.66;;;15.73;93.28
43707;BME280;61348;53.392;-6.248;2023-08-20T04:40:59;100821.06;;;15.76;93.42
43707;BME280;61348;53.392;-6.248;2023-08-20T04:43:26;100809.88;;;15.76;93.30
43707;BME280;61348;53.392;-6.248;2023-08-20T04:45:53;100817.09;;;15.77;93.37
43707;BME280;61348;53.392;-6.248;2023-08-20T04:48:19;100811.50;;;15.77;93.11
43707;BME280;61348;53.392;-6.248;2023-08-20T04:50:47;100823.09;;;15.79;93.14
43707;BME280;61348;53.392;-6.248;2023-08-20T04:53:14;100829.09;;;15.81;92.94
43707;BME280;61348;53.392;-6.248;2023-08-20T04:55:40;100825.13;;;15.82;92.81
43707;BME280;61348;53.392;-6.248;2023-08-20T04:58:07;100832.34;;;15.83;92.77
43707;BME280;61348;53.392;-6.248;2023-08-20T05:00:34;100823.97;;;15.83;92.77
43707;BME280;61348;53.392;-6.248;2023-08-20T05:03:01;100825.13;;;15.82;92.68
43707;BME280;61348;53.392;-6.248;2023-08-20T05:05:28;100828.31;;;15.80;92.56
43707;BME280;61348;53.392;-6.248;2023-08-20T05:07:54;100831.13;;;15.80;92.79
43707;BME280;61348;53.392;-6.248;2023-08-20T05:10:21;100831.13;;;15.80;92.71
43707;BME280;61348;53.392;-6.248;2023-08-20T05:12:48;100827.50;;;15.80;92.83
43707;BME280;61348;53.392;-6.248;2023-08-20T05:15:15;100834.66;;;15.77;92.98
43707;BME280;61348;53.392;-6.248;2023-08-20T05:17:41;100821.81;;;15.73;92.79
43707;BME280;61348;53.392;-6.248;2023-08-20T05:20:09;100829.34;;;15.69;92.86
43707;BME280;61348;53.392;-6.248;2023-08-20T05:22:36;100844.47;;;15.68;93.12
43707;BME280;61348;53.392;-6.248;2023-08-20T05:25:03;100834.13;;;15.68;93.16
43707;BME280;61348;53.392;-6.248;2023-08-20T05:27:30;100829.75;;;15.71;93.07
43707;BME280;61348;53.392;-6.248;2023-08-20T05:29:57;100839.38;;;15.73;93.17
43707;BME280;61348;53.392;-6.248;2023-08-20T05:32:23;100839.00;;;15.75;93.44
43707;BME280;61348;53.392;-6.248;2023-08-20T05:34:50;100862.19;;;15.79;93.23
43707;BME280;61348;53.392;-6.248;2023-08-20T05:37:17;100855.44;;;15.80;93.52
43707;BME280;61348;53.392;-6.248;2023-08-20T05:39:44;100853.00;;;15.78;93.67
43707;BME280;61348;53.392;-6.248;2023-08-20T05:42:11;100856.25;;;15.80;93.65
43707;BME280;61348;53.392;-6.248;2023-08-20T05:44:38;100857.00;;;15.81;93.50
43707;BME280;61348;53.392;-6.248;2023-08-20T05:47:05;100855.84;;;15.82;93.60
43707;BME280;61348;53.392;-6.248;2023-08-20T05:49:32;100858.25;;;15.83;93.76
43707;BME280;61348;53.392;-6.248;2023-08-20T05:51:59;100847.53;;;15.86;93.80
43707;BME280;61348;53.392;-6.248;2023-08-20T05:54:25;100856.31;;;15.88;93.61
43707;BME280;61348;53.392;-6.248;2023-08-20T05:56:52;100852.34;;;15.89;93.58
43707;BME280;61348;53.392;-6.248;2023-08-20T05:59:19;100852.38;;;15.92;93.52
43707;BME280;61348;53.392;-6.248;2023-08-20T06:01:46;100852.81;;;15.94;93.40
43707;BME280;61348;53.392;-6.248;2023-08-20T06:04:13;100859.63;;;15.97;93.14
43707;BME280;61348;53.392;-6.248;2023-08-20T06:06:39;100870.91;;;16.04;93.13
43707;BME280;61348;53.392;-6.248;2023-08-20T06:09:07;100869.38;;;16.10;93.08
43707;BME280;61348;53.392;-6.248;2023-08-20T06:11:35;100875.88;;;16.17;92.98
43707;BME280;61348;53.392;-6.248;2023-08-20T06:14:03;100871.19;;;16.25;92.90
43707;BME280;61348;53.392;-6.248;2023-08-20T06:16:29;100875.22;;;16.31;92.44
43707;BME280;61348;53.392;-6.248;2023-08-20T06:18:57;100867.31;;;16.36;92.52
43707;BME280;61348;53.392;-6.248;2023-08-20T06:21:28;100871.38;;;16.42;92.55
43707;BME280;61348;53.392;-6.248;2023-08-20T06:23:55;100873.81;;;16.44;92.29
43707;BME280;61348;53.392;-6.248;2023-08-20T06:26:22;100877.03;;;16.50;92.34
43707;BME280;61348;53.392;-6.248;2023-08-20T06:28:49;100874.69;;;16.52;92.27
43707;BME280;61348;53.392;-6.248;2023-08-20T06:31:15;100880.72;;;16.54;92.19
43707;BME280;61348;53.392;-6.248;2023-08-20T06:33:42;100875.13;;;16.54;92.08
43707;BME280;61348;53.392;-6.248;2023-08-20T06:36:09;100887.53;;;16.56;91.74
43707;BME280;61348;53.392;-6.248;2023-08-20T06:38:36;100888.78;;;16.59;91.77
43707;BME280;61348;53.392;-6.248;2023-08-20T06:41:03;100888.81;;;16.62;91.70
43707;BME280;61348;53.392;-6.248;2023-08-20T06:43:30;100888.06;;;16.65;91.55
43707;BME280;61348;53.392;-6.248;2023-08-20T06:45:57;100883.25;;;16.66;91.19
43707;BME280;61348;53.392;-6.248;2023-08-20T06:48:24;100892.50;;;16.70;91.43
43707;BME280;61348;53.392;-6.248;2023-08-20T06:50:51;100892.50;;;16.73;91.08
43707;BME280;61348;53.392;-6.248;2023-08-20T06:53:18;100903.78;;;16.80;91.26
43707;BME280;61348;53.392;-6.248;2023-08-20T06:55:45;100909.44;;;16.87;91.09
43707;BME280;61348;53.392;-6.248;2023-08-20T06:58:11;100891.19;;;16.97;90.96
43707;BME280;61348;53.392;-6.248;2023-08-20T07:00:38;100902.47;;;17.08;90.95
43707;BME280;61348;53.392;-6.248;2023-08-20T07:03:05;100902.53;;;17.15;90.36
43707;BME280;61348;53.392;-6.248;2023-08-20T07:05:32;100905.84;;;17.27;90.32
43707;BME280;61348;53.392;-6.248;2023-08-20T07:07:59;100901.13;;;17.38;90.13
43707;BME280;61348;53.392;-6.248;2023-08-20T07:10:25;100906.81;;;17.49;89.51
43707;BME280;61348;53.392;-6.248;2023-08-20T07:12:52;100902.09;;;17.56;89.23
43707;BME280;61348;53.392;-6.248;2023-08-20T07:15:19;100904.94;;;17.63;88.98
43707;BME280;61348;53.392;-6.248;2023-08-20T07:17:46;100909.00;;;17.70;88.74
43707;BME280;61348;53.392;-6.248;2023-08-20T07:20:13;100908.63;;;17.75;88.49
43707;BME280;61348;53.392;-6.248;2023-08-20T07:22:40;100919.06;;;17.78;88.57
43707;BME280;61348;53.392;-6.248;2023-08-20T07:25:08;100919.06;;;17.78;88.61
43707;BME280;61348;53.392;-6.248;2023-08-20T07:27:35;100917.44;;;17.77;88.37
43707;BME280;61348;53.392;-6.248;2023-08-20T07:30:02;100919.06;;;17.78;88.01
43707;BME280;61348;53.392;-6.248;2023-08-20T07:32:29;100929.06;;;17.79;87.86
43707;BME280;61348;53.392;-6.248;2023-08-20T07:34:56;100922.25;;;17.80;87.39
43707;BME280;61348;53.392;-6.248;2023-08-20T07:37:23;100934.69;;;17.82;86.84
43707;BME280;61348;53.392;-6.248;2023-08-20T07:39:50;100939.13;;;17.87;86.81
43707;BME280;61348;53.392;-6.248;2023-08-20T07:42:16;100935.19;;;17.98;86.55
43707;BME280;61348;53.392;-6.248;2023-08-20T07:44:44;100943.72;;;18.16;85.86
43707;BME280;61348;53.392;-6.248;2023-08-20T07:47:11;100932.94;;;18.25;85.25
43707;BME280;61348;53.392;-6.248;2023-08-20T07:49:39;100937.81;;;18.32;84.79
43707;BME280;61348;53.392;-6.248;2023-08-20T07:52:05;100939.44;;;18.40;84.47
43707;BME280;61348;53.392;-6.248;2023-08-20T07:54:32;100943.47;;;18.42;84.04
43707;BME280;61348;53.392;-6.248;2023-08-20T07:56:59;100954.31;;;18.47;83.22
43707;BME280;61348;53.392;-6.248;2023-08-20T07:59:26;100952.31;;;18.51;82.21
43707;BME280;61348;53.392;-6.248;2023-08-20T08:01:52;100943.53;;;18.56;82.04
43707;BME280;61348;53.392;-6.248;2023-08-20T08:04:19;100954.00;;;18.63;81.21
43707;BME280;61348;53.392;-6.248;2023-08-20T08:06:46;100950.41;;;18.66;80.67
43707;BME280;61348;53.392;-6.248;2023-08-20T08:09:21;100958.84;;;18.76;81.14
43707;BME280;61348;53.392;-6.248;2023-08-20T08:11:48;100958.88;;;18.83;79.70
43707;BME280;61348;53.392;-6.248;2023-08-20T08:14:15;100962.50;;;18.88;79.36
43707;BME280;61348;53.392;-6.248;2023-08-20T08:16:42;100959.69;;;18.88;78.48
43707;BME280;61348;53.392;-6.248;2023-08-20T08:19:09;100957.28;;;18.86;78.42
43707;BME280;61348;53.392;-6.248;2023-08-20T08:21:38;100967.31;;;18.87;77.99
43707;BME280;61348;53.392;-6.248;2023-08-20T08:24:05;100964.91;;;18.93;78.36
43707;BME280;61348;53.392;-6.248;2023-08-20T08:26:33;100962.13;;;19.07;78.37
43707;BME280;61348;53.392;-6.248;2023-08-20T08:29:01;100966.97;;;19.27;78.44
43707;BME280;61348;53.392;-6.248;2023-08-20T08:31:28;100976.69;;;19.51;78.68
43707;BME280;61348;53.392;-6.248;2023-08-20T08:33:55;100981.47;;;19.89;78.65
43707;BME280;61348;53.392;-6.248;2023-08-20T08:36:22;100979.81;;;20.38;77.33
43707;BME280;61348;53.392;-6.248;2023-08-20T08:38:52;100977.63;;;20.84;75.94
43707;BME280;61348;53.392;-6.248;2023-08-20T08:41:21;100972.31;;;21.07;73.95
43707;BME280;61348;53.392;-6.248;2023-08-20T08:43:50;100977.13;;;21.00;72.61
43707;BME280;61348;53.392;-6.248;2023-08-20T08:46:17;100973.63;;;20.85;71.42
43707;BME280;61348;53.392;-6.248;2023-08-20T08:48:45;100969.06;;;21.12;70.65
43707;BME280;61348;53.392;-6.248;2023-08-20T08:51:13;100984.13;;;21.47;68.66
43707;BME280;61348;53.392;-6.248;2023-08-20T08:53:42;100988.44;;;21.62;67.65
43707;BME280;61348;53.392;-6.248;2023-08-20T08:56:10;100985.28;;;21.53;66.92
43707;BME280;61348;53.392;-6.248;2023-08-20T08:58:37;100975.25;;;21.52;66.36
43707;BME280;61348;53.392;-6.248;2023-08-20T09:01:04;100983.06;;;21.78;65.58
43707;BME280;61348;53.392;-6.248;2023-08-20T09:03:31;100967.41;;;21.73;65.38
43707;BME280;61348;53.392;-6.248;2023-08-20T09:05:59;100978.09;;;21.96;64.96
43707;BME280;61348;53.392;-6.248;2023-08-20T09:08:31;100977.38;;;21.85;64.79
43707;BME280;61348;53.392;-6.248;2023-08-20T09:10:59;100982.69;;;21.76;64.51
43707;BME280;61348;53.392;-6.248;2023-08-20T09:13:33;100992.16;;;21.45;64.74
43707;BME280;61348;53.392;-6.248;2023-08-20T09:16:03;100985.91;;;21.19;64.12
43707;BME280;61348;53.392;-6.248;2023-08-20T09:18:30;100986.88;;;21.54;64.35
43707;BME280;61348;53.392;-6.248;2023-08-20T09:20:57;100984.34;;;22.18;63.22
43707;BME280;61348;53.392;-6.248;2023-08-20T09:23:28;100985.75;;;22.74;61.99
43707;BME280;61348;53.392;-6.248;2023-08-20T09:25:56;100984.38;;;23.16;60.73
43707;BME280;61348;53.392;-6.248;2023-08-20T09:28:23;100995.03;;;23.61;59.97
43707;BME280;61348;53.392;-6.248;2023-08-20T09:30:57;101005.97;;;24.06;59.35
43707;BME280;61348;53.392;-6.248;2023-08-20T09:33:24;100999.00;;;24.34;57.75
43707;BME280;61348;53.392;-6.248;2023-08-20T09:35:51;100999.69;;;24.61;56.48
43707;BME280;61348;53.392;-6.248;2023-08-20T09:38:23;101003.88;;;24.96;55.63
43707;BME280;61348;53.392;-6.248;2023-08-20T09:40:52;100985.94;;;25.18;54.41
43707;BME280;61348;53.392;-6.248;2023-08-20T09:43:20;100988.00;;;25.34;53.92
43707;BME280;61348;53.392;-6.248;2023-08-20T09:45:50;100989.59;;;25.55;53.40
43707;BME280;61348;53.392;-6.248;2023-08-20T09:48:18;100985.09;;;25.73;53.33
43707;BME280;61348;53.392;-6.248;2023-08-20T09:50:51;100978.88;;;25.78;52.67
43707;BME280;61348;53.392;-6.248;2023-08-20T09:55:58;100987.78;;;26.09;51.30
43707;BME280;61348;53.392;-6.248;2023-08-20T09:58:26;100995.16;;;25.90;52.37
43707;BME280;61348;53.392;-6.248;2023-08-20T10:00:54;100992.25;;;25.94;50.33
43707;BME280;61348;53.392;-6.248;2023-08-20T10:03:21;100989.06;;;25.92;49.75
43707;BME280;61348;53.392;-6.248;2023-08-20T10:05:50;100982.22;;;25.89;49.40
43707;BME280;61348;53.392;-6.248;2023-08-20T10:08:17;100988.69;;;25.90;49.74
43707;BME280;61348;53.392;-6.248;2023-08-20T10:10:44;100985.78;;;25.93;49.16
43707;BME280;61348;53.392;-6.248;2023-08-20T10:13:13;100981.97;;;25.84;48.34
43707;BME280;61348;53.392;-6.248;2023-08-20T10:15:40;100984.91;;;25.80;48.37
43707;BME280;61348;53.392;-6.248;2023-08-20T10:18:11;100993.47;;;25.77;48.44
43707;BME280;61348;53.392;-6.248;2023-08-20T10:20:39;100998.34;;;25.76;47.81
43707;BME280;61348;53.392;-6.248;2023-08-20T10:23:07;100979.16;;;25.68;48.29
43707;BME280;61348;53.392;-6.248;2023-08-20T10:25:41;100993.75;;;25.82;48.03
43707;BME280;61348;53.392;-6.248;2023-08-20T10:28:14;100997.19;;;25.74;47.63
43707;BME280;61348;53.392;-6.248;2023-08-20T10:33:36;101020.84;;;25.51;47.75
43707;BME280;61348;53.392;-6.248;2023-08-20T10:36:14;101004.59;;;25.35;47.81
43707;BME280;61348;53.392;-6.248;2023-08-20T10:38:45;101021.38;;;25.26;47.51
43707;BME280;61348;53.392;-6.248;2023-08-20T10:41:12;101026.88;;;24.98;47.64
43707;BME280;61348;53.392;-6.248;2023-08-20T10:43:46;101008.13;;;24.64;47.62
43707;BME280;61348;53.392;-6.248;2023-08-20T10:46:18;101009.47;;;23.90;48.90
43707;BME280;61348;53.392;-6.248;2023-08-20T10:48:53;101013.25;;;23.57;49.96
43707;BME280;61348;53.392;-6.248;2023-08-20T10:51:37;101010.66;;;23.43;50.15
43707;BME280;61348;53.392;-6.248;2023-08-20T10:54:07;101005.50;;;23.04;50.75
43707;BME280;61348;53.392;-6.248;2023-08-20T10:59:12;101008.25;;;22.40;52.54
43707;BME280;61348;53.392;-6.248;2023-08-20T11:01:43;101004.22;;;22.44;53.31
43707;BME280;61348;53.392;-6.248;2023-08-20T11:04:10;101005.09;;;22.72;53.35
43707;BME280;61348;53.392;-6.248;2023-08-20T11:06:37;101015.84;;;22.87;52.91
43707;BME280;61348;53.392;-6.248;2023-08-20T11:09:05;101001.94;;;23.00;53.11
43707;BME280;61348;53.392;-6.248;2023-08-20T11:11:32;101005.00;;;23.13;53.34
43707;BME280;61348;53.392;-6.248;2023-08-20T11:14:07;101003.22;;;23.22;53.48
43707;BME280;61348;53.392;-6.248;2023-08-20T11:16:34;100997.66;;;23.19;53.63
43707;BME280;61348;53.392;-6.248;2023-08-20T11:19:04;101007.09;;;23.09;53.56
43707;BME280;61348;53.392;-6.248;2023-08-20T11:21:35;101005.19;;;22.98;54.05
43707;BME280;61348;53.392;-6.248;2023-08-20T11:24:03;100999.66;;;22.88;53.65
43707;BME280;61348;53.392;-6.248;2023-08-20T11:26:30;100996.91;;;22.84;53.71
43707;BME280;61348;53.392;-6.248;2023-08-20T11:28:57;100982.81;;;22.81;53.58
43707;BME280;61348;53.392;-6.248;2023-08-20T11:31:25;100986.50;;;22.78;53.63
43707;BME280;61348;53.392;-6.248;2023-08-20T11:33:52;100999.88;;;22.74;53.74
43707;BME280;61348;53.392;-6.248;2023-08-20T11:36:20;100985.78;;;22.70;53.59
43707;BME280;61348;53.392;-6.248;2023-08-20T11:38:54;100988.28;;;22.61;53.10
43707;BME280;61348;53.392;-6.248;2023-08-20T11:41:22;100994.97;;;22.40;53.28
43707;BME280;61348;53.392;-6.248;2023-08-20T11:43:50;100991.03;;;22.34;53.90
43707;BME280;61348;53.392;-6.248;2023-08-20T11:46:19;100988.94;;;22.38;53.50
43707;BME280;61348;53.392;-6.248;2023-08-20T11:49:05;100980.06;;;22.40;54.08
43707;BME280;61348;53.392;-6.248;2023-08-20T11:54:13;100992.69;;;22.28;54.84
43707;BME280;61348;53.392;-6.248;2023-08-20T11:56:48;100993.19;;;22.20;54.73
43707;BME280;61348;53.392;-6.248;2023-08-20T11:59:17;100998.91;;;22.09;54.88
43707;BME280;61348;53.392;-6.248;2023-08-20T12:01:51;100995.72;;;22.07;55.36
43707;BME280;61348;53.392;-6.248;2023-08-20T12:04:17;100995.56;;;22.21;55.27
43707;BME280;61348;53.392;-6.248;2023-08-20T12:06:44;100995.63;;;22.18;55.16
43707;BME280;61348;53.392;-6.248;2023-08-20T12:09:20;100992.75;;;22.21;55.23
43707;BME280;61348;53.392;-6.248;2023-08-20T12:11:49;101002.00;;;22.22;55.31
43707;BME280;61348;53.392;-6.248;2023-08-20T12:14:18;101001.56;;;22.27;55.38
43707;BME280;61348;53.392;-6.248;2023-08-20T12:16:45;101005.88;;;22.38;55.96
43707;BME280;61348;53.392;-6.248;2023-08-20T12:19:13;101002.56;;;22.47;55.42
43707;BME280;61348;53.392;-6.248;2023-08-20T12:21:43;100995.81;;;22.75;55.12
43707;BME280;61348;53.392;-6.248;2023-08-20T12:24:10;100990.94;;;22.79;55.01
43707;BME280;61348;53.392;-6.248;2023-08-20T12:26:38;101000.78;;;22.64;54.88
43707;BME280;61348;53.392;-6.248;2023-08-20T12:29:06;100990.38;;;22.54;54.97
43707;BME280;61348;53.392;-6.248;2023-08-20T12:31:34;101002.38;;;22.61;55.15
43707;BME280;61348;53.392;-6.248;2023-08-20T12:34:01;100992.47;;;22.50;55.22
43707;BME280;61348;53.392;-6.248;2023-08-20T12:36:29;100999.41;;;22.41;55.66
43707;BME280;61348;53.392;-6.248;2023-08-20T12:38:56;101006.31;;;22.37;56.02
43707;BME280;61348;53.392;-6.248;2023-08-20T12:41:23;101005.56;;;22.29;56.03
43707;BME280;61348;53.392;-6.248;2023-08-20T12:43:50;101001.63;;;22.20;56.16
43707;BME280;61348;53.392;-6.248;2023-08-20T12:46:17;101010.69;;;22.41;56.26
43707;BME280;61348;53.392;-6.248;2023-08-20T12:48:44;100996.63;;;22.72;56.29
43707;BME280;61348;53.392;-6.248;2023-08-20T12:51:11;101001.09;;;23.03;55.79
43707;BME280;61348;53.392;-6.248;2023-08-20T12:53:40;100999.94;;;23.27;55.19
43707;BME280;61348;53.392;-6.248;2023-08-20T12:56:07;100997.88;;;23.31;55.00
43707;BME280;61348;53.392;-6.248;2023-08-20T12:58:34;100990.06;;;23.42;54.73
43707;BME280;61348;53.392;-6.248;2023-08-20T13:01:01;100987.44;;;23.55;54.26
43707;BME280;61348;53.392;-6.248;2023-08-20T13:03:28;100991.31;;;23.64;53.66